createdAt,value
2023-05-13T00:01:29.956Z,8.00
2023-05-13T00:03:58.194Z,8.00
2023-05-13T00:06:26.282Z,8.00
2023-05-13T00:08:54.582Z,8.00
2023-05-13T00:11:24.063Z,8.00
2023-05-13T00:13:52.158Z,8.00
2023-05-13T00:16:22.729Z,8.00
2023-05-13T00:18:51.552Z,8.00
2023-05-13T00:21:19.772Z,8.00
2023-05-13T00:23:47.933Z,8.00
2023-05-13T00:26:16.079Z,8.00
2023-05-13T00:28:47.652Z,8.00
2023-05-13T00:31:16.666Z,7.90
2023-05-13T00:33:45.464Z,7.90
2023-05-13T00:36:14.351Z,7.90
2023-05-13T00:38:43.986Z,7.90
2023-05-13T00:41:13.431Z,7.80
2023-05-13T00:43:41.646Z,7.80
2023-05-13T00:46:11.360Z,7.70
2023-05-13T00:48:40.286Z,7.70
2023-05-13T00:51:08.799Z,7.70
2023-05-13T00:53:38.257Z,7.60
2023-05-13T00:56:07.140Z,7.60
2023-05-13T00:58:35.502Z,7.60
2023-05-13T01:01:21.973Z,7.50
2023-05-13T01:04:00.851Z,7.50
2023-05-13T01:06:46.364Z,7.50
2023-05-13T01:09:27.358Z,7.50
2023-05-13T01:11:57.946Z,7.50
2023-05-13T01:14:33.810Z,7.50
2023-05-13T01:17:11.144Z,7.40
2023-05-13T01:19:45.509Z,7.40
2023-05-13T01:22:15.137Z,7.40
2023-05-13T01:24:43.506Z,7.40
2023-05-13T01:27:12.370Z,7.30
2023-05-13T01:29:41.344Z,7.30
2023-05-13T01:32:11.881Z,7.40
2023-05-13T01:34:41.841Z,7.30
2023-05-13T01:37:10.413Z,7.30
2023-05-13T01:39:41.924Z,7.30
2023-05-13T01:42:14.231Z,7.30
2023-05-13T01:44:43.788Z,7.40
2023-05-13T01:47:12.176Z,7.30
2023-05-13T01:49:40.366Z,7.30
2023-05-13T01:52:09.010Z,7.40
2023-05-13T01:54:37.176Z,7.40
2023-05-13T01:57:11.368Z,7.40
2023-05-13T01:59:39.772Z,7.40
2023-05-13T02:02:08.022Z,7.50
2023-05-13T02:04:36.364Z,7.50
2023-05-13T02:07:04.867Z,7.50
2023-05-13T02:09:34.585Z,7.60
2023-05-13T02:12:02.990Z,7.60
2023-05-13T02:14:32.596Z,7.70
2023-05-13T02:17:03.576Z,7.70
2023-05-13T02:19:31.779Z,7.70
2023-05-13T02:21:59.999Z,7.80
2023-05-13T02:24:28.261Z,7.80
2023-05-13T02:26:56.431Z,7.90
2023-05-13T02:29:24.630Z,7.90
2023-05-13T02:31:55.518Z,8.00
2023-05-13T02:34:23.825Z,8.00
2023-05-13T02:36:52.254Z,8.00
2023-05-13T02:39:20.368Z,8.10
2023-05-13T02:41:48.470Z,8.10
2023-05-13T02:44:16.744Z,8.10
2023-05-13T02:46:45.931Z,8.20
2023-05-13T02:49:15.453Z,8.20
2023-05-13T02:51:43.815Z,8.20
2023-05-13T02:54:12.028Z,8.20
2023-05-13T02:56:40.189Z,8.30
2023-05-13T02:59:08.602Z,8.30
2023-05-13T03:01:36.788Z,8.40
2023-05-13T03:04:05.487Z,8.40
2023-05-13T03:06:34.958Z,8.40
2023-05-13T03:09:03.211Z,8.50
2023-05-13T03:11:31.432Z,8.50
2023-05-13T03:14:00.290Z,8.50
2023-05-13T03:16:28.461Z,8.60
2023-05-13T03:18:57.074Z,8.60
2023-05-13T03:21:25.306Z,8.60
2023-05-13T03:23:55.037Z,8.60
2023-05-13T03:26:23.158Z,8.70
2023-05-13T03:28:51.515Z,8.70
2023-05-13T03:31:19.835Z,8.70
2023-05-13T03:33:48.228Z,8.70
2023-05-13T03:36:16.396Z,8.80
2023-05-13T03:38:44.594Z,8.80
2023-05-13T03:41:17.364Z,8.80
2023-05-13T03:43:47.859Z,8.80
2023-05-13T03:46:17.239Z,8.90
2023-05-13T03:48:46.248Z,8.90
2023-05-13T03:51:14.553Z,8.90
2023-05-13T03:53:42.923Z,9.00
2023-05-13T03:56:11.291Z,9.00
2023-05-13T03:58:40.823Z,9.00
2023-05-13T04:01:09.288Z,9.00
2023-05-13T04:03:37.522Z,9.10
2023-05-13T04:06:06.184Z,9.10
2023-05-13T04:08:34.384Z,9.20
2023-05-13T04:11:02.523Z,9.20
2023-05-13T04:13:30.652Z,9.30
2023-05-13T04:16:00.128Z,9.30
2023-05-13T04:18:30.374Z,9.40
2023-05-13T04:20:58.611Z,9.40
2023-05-13T04:23:26.706Z,9.40
2023-05-13T04:25:54.879Z,9.50
2023-05-13T04:28:22.993Z,9.50
2023-05-13T04:30:52.011Z,9.60
2023-05-13T04:33:21.901Z,9.60
2023-05-13T04:35:50.807Z,9.60
2023-05-13T04:38:19.032Z,9.70
2023-05-13T04:40:47.949Z,9.70
2023-05-13T04:43:22.057Z,9.80
2023-05-13T04:45:54.487Z,9.80
2023-05-13T04:48:27.874Z,9.90
2023-05-13T04:50:57.021Z,9.90
2023-05-13T04:53:26.560Z,10.00
2023-05-13T04:56:00.750Z,10.00
2023-05-13T04:58:30.409Z,10.10
2023-05-13T05:00:58.596Z,10.20
2023-05-13T05:03:28.201Z,10.20
2023-05-13T05:05:56.381Z,10.30
2023-05-13T05:08:25.790Z,10.30
2023-05-13T05:10:54.251Z,10.40
2023-05-13T05:13:22.485Z,10.40
2023-05-13T05:15:51.293Z,10.50
2023-05-13T05:18:19.555Z,10.60
2023-05-13T05:20:52.486Z,10.70
2023-05-13T05:23:22.761Z,10.80
2023-05-13T05:26:00.829Z,10.90
2023-05-13T05:28:40.209Z,10.90
2023-05-13T05:31:09.682Z,11.00
2023-05-13T05:33:38.554Z,11.00
2023-05-13T05:36:10.171Z,11.10
2023-05-13T05:38:38.400Z,11.20
2023-05-13T05:41:07.908Z,11.30
2023-05-13T05:43:36.593Z,11.40
2023-05-13T05:46:05.200Z,11.40
2023-05-13T05:48:34.804Z,11.50
2023-05-13T05:51:03.736Z,11.50
2023-05-13T05:53:37.665Z,11.60
2023-05-13T05:56:07.618Z,11.70
2023-05-13T05:58:36.068Z,11.70
2023-05-13T06:01:05.494Z,11.80
2023-05-13T06:03:34.353Z,11.90
2023-05-13T06:06:02.586Z,12.00
2023-05-13T06:08:31.275Z,12.10
2023-05-13T06:11:00.864Z,12.20
2023-05-13T06:13:29.089Z,12.30
2023-05-13T06:15:57.344Z,12.40
2023-05-13T06:18:26.839Z,12.40
2023-05-13T06:20:55.616Z,12.60
2023-05-13T06:23:23.830Z,12.70
2023-05-13T06:25:53.040Z,12.80
2023-05-13T06:28:22.614Z,12.90
2023-05-13T06:30:53.611Z,13.00
2023-05-13T06:33:22.087Z,13.20
2023-05-13T06:35:50.399Z,13.30
2023-05-13T06:38:21.050Z,13.40
2023-05-13T06:40:50.501Z,13.50
2023-05-13T06:43:19.582Z,13.70
2023-05-13T06:45:51.417Z,13.80
2023-05-13T06:48:19.652Z,13.90
2023-05-13T06:50:49.690Z,14.00
2023-05-13T06:53:17.866Z,14.10
2023-05-13T06:55:46.197Z,14.20
2023-05-13T06:58:14.432Z,14.30
2023-05-13T07:00:42.822Z,14.40
2023-05-13T07:03:12.520Z,14.50
2023-05-13T07:05:40.714Z,14.50
2023-05-13T07:08:10.141Z,14.50
2023-05-13T07:10:38.265Z,14.50
2023-05-13T07:13:07.236Z,14.60
2023-05-13T07:15:35.345Z,14.70
2023-05-13T07:18:03.743Z,14.70
2023-05-13T07:20:33.240Z,14.80
2023-05-13T07:23:01.336Z,14.80
2023-05-13T07:25:29.532Z,14.80
2023-05-13T07:27:57.691Z,14.80
2023-05-13T07:30:25.994Z,14.80
2023-05-13T07:32:54.292Z,14.80
2023-05-13T07:35:22.808Z,14.80
2023-05-13T07:37:52.623Z,14.70
2023-05-13T07:40:21.121Z,14.70
2023-05-13T07:42:49.531Z,14.70
2023-05-13T07:45:17.809Z,14.80
2023-05-13T07:47:45.952Z,14.80
2023-05-13T07:50:14.225Z,14.80
2023-05-13T07:52:43.214Z,14.90
2023-05-13T07:55:12.679Z,15.00
2023-05-13T07:57:40.768Z,15.00
2023-05-13T08:00:10.527Z,15.10
2023-05-13T08:02:43.848Z,15.20
2023-05-13T08:05:12.481Z,15.20
2023-05-13T08:07:40.696Z,15.30
2023-05-13T08:10:09.778Z,15.30
2023-05-13T08:12:40.411Z,15.40
2023-05-13T08:15:11.879Z,15.40
2023-05-13T08:17:40.413Z,15.30
2023-05-13T08:20:11.229Z,15.30
2023-05-13T08:22:39.440Z,15.30
2023-05-13T08:25:08.183Z,15.30
2023-05-13T08:27:37.825Z,15.40
2023-05-13T08:30:07.221Z,15.40
2023-05-13T08:32:35.369Z,15.40
2023-05-13T08:35:03.522Z,15.40
2023-05-13T08:37:31.625Z,15.30
2023-05-13T08:40:01.555Z,15.30
2023-05-13T08:42:33.260Z,15.30
2023-05-13T08:45:06.598Z,15.20
2023-05-13T08:47:46.500Z,15.20
2023-05-13T08:50:15.235Z,15.20
2023-05-13T08:52:44.722Z,15.20
2023-05-13T08:55:13.829Z,15.10
2023-05-13T08:57:41.984Z,15.20
2023-05-13T09:00:14.445Z,15.20
2023-05-13T09:02:42.973Z,15.10
2023-05-13T09:05:12.476Z,15.10
2023-05-13T09:07:40.838Z,15.10
2023-05-13T09:10:11.171Z,15.20
2023-05-13T09:12:48.426Z,15.20
2023-05-13T09:15:20.571Z,15.20
2023-05-13T09:17:52.439Z,15.30
2023-05-13T09:20:22.885Z,15.60
2023-05-13T09:22:53.968Z,15.90
2023-05-13T09:25:24.930Z,16.30
2023-05-13T09:27:57.727Z,16.70
2023-05-13T09:30:28.404Z,17.20
2023-05-13T09:33:12.094Z,17.50
2023-05-13T09:35:42.307Z,17.80
2023-05-13T09:38:15.590Z,18.00
2023-05-13T09:40:52.117Z,18.30
2023-05-13T09:43:22.045Z,18.40
2023-05-13T09:45:55.828Z,18.40
2023-05-13T09:48:27.089Z,18.30
2023-05-13T09:50:58.010Z,18.20
2023-05-13T09:53:27.298Z,18.00
2023-05-13T09:55:58.660Z,17.80
2023-05-13T09:58:30.625Z,17.70
2023-05-13T10:01:00.408Z,17.60
2023-05-13T10:03:31.231Z,17.60
2023-05-13T10:06:03.389Z,17.50
2023-05-13T10:08:32.496Z,17.40
2023-05-13T10:11:01.466Z,17.40
2023-05-13T10:13:32.582Z,17.50
2023-05-13T10:16:02.320Z,17.60
2023-05-13T10:18:31.382Z,17.70
2023-05-13T10:20:59.883Z,17.80
2023-05-13T10:23:29.455Z,17.90
2023-05-13T10:26:00.062Z,17.90
2023-05-13T10:28:29.276Z,17.90
2023-05-13T10:30:58.034Z,17.80
2023-05-13T10:33:29.589Z,17.60
2023-05-13T10:36:34.609Z,17.50
2023-05-13T10:39:33.046Z,17.40
2023-05-13T10:42:40.987Z,17.20
2023-05-13T10:45:09.838Z,17.00
2023-05-13T10:47:39.277Z,16.90
2023-05-13T10:50:25.105Z,16.80
2023-05-13T10:52:58.115Z,16.60
2023-05-13T10:55:28.788Z,16.60
2023-05-13T10:58:10.884Z,16.60
2023-05-13T11:00:40.211Z,16.60
2023-05-13T11:03:28.797Z,16.80
2023-05-13T11:06:15.851Z,17.10
2023-05-13T11:08:45.987Z,17.30
2023-05-13T11:11:34.755Z,17.50
2023-05-13T11:14:15.433Z,17.70
2023-05-13T11:16:49.669Z,17.70
2023-05-13T11:19:23.731Z,17.70
2023-05-13T11:21:56.182Z,17.60
2023-05-13T11:24:26.245Z,17.40
2023-05-13T11:26:57.262Z,17.10
2023-05-13T11:29:34.076Z,16.80
2023-05-13T11:32:05.528Z,16.60
2023-05-13T11:34:36.016Z,16.50
2023-05-13T11:37:11.709Z,16.50
2023-05-13T11:39:42.167Z,16.40
2023-05-13T11:42:12.043Z,16.30
2023-05-13T11:44:47.515Z,16.30
2023-05-13T11:47:15.770Z,16.30
2023-05-13T11:49:46.405Z,16.40
2023-05-13T11:52:18.288Z,16.40
2023-05-13T11:54:49.235Z,16.50
2023-05-13T11:57:22.128Z,16.60
2023-05-13T12:00:00.246Z,16.80
2023-05-13T12:02:31.349Z,17.00
2023-05-13T12:05:04.256Z,17.10
2023-05-13T12:07:35.192Z,17.20
2023-05-13T12:10:07.087Z,17.40
2023-05-13T12:12:38.702Z,17.60
2023-05-13T12:15:11.642Z,17.80
2023-05-13T12:17:40.188Z,18.00
2023-05-13T12:20:16.442Z,18.20
2023-05-13T12:22:57.870Z,18.30
2023-05-13T12:25:45.042Z,18.40
2023-05-13T12:28:19.972Z,18.40
2023-05-13T12:30:53.926Z,18.40
2023-05-13T12:33:24.607Z,18.40
2023-05-13T12:35:55.462Z,18.40
2023-05-13T12:38:25.768Z,18.60
2023-05-13T12:40:55.053Z,18.70
2023-05-13T12:43:24.120Z,18.90
2023-05-13T12:45:55.562Z,19.10
2023-05-13T12:48:27.257Z,19.20
2023-05-13T12:50:56.399Z,19.20
2023-05-13T12:53:26.211Z,19.20
2023-05-13T12:55:54.436Z,19.20
2023-05-13T12:58:22.593Z,19.20
2023-05-13T13:00:50.825Z,19.30
2023-05-13T13:03:23.262Z,19.40
2023-05-13T13:05:53.106Z,19.50
2023-05-13T13:08:21.389Z,19.50
2023-05-13T13:10:51.198Z,19.70
2023-05-13T13:13:19.326Z,19.90
2023-05-13T13:15:47.475Z,20.10
2023-05-13T13:18:15.577Z,20.40
2023-05-13T13:20:43.693Z,20.60
2023-05-13T13:23:11.810Z,20.70
2023-05-13T13:25:40.161Z,20.70
2023-05-13T13:28:09.663Z,20.60
2023-05-13T13:30:38.082Z,20.40
2023-05-13T13:33:06.451Z,20.30
2023-05-13T13:35:34.721Z,20.10
2023-05-13T13:38:02.798Z,20.00
2023-05-13T13:40:30.999Z,19.90
2023-05-13T13:42:59.181Z,19.90
2023-05-13T13:45:28.801Z,19.90
2023-05-13T13:47:57.114Z,20.00
2023-05-13T13:50:25.511Z,20.10
2023-05-13T13:52:53.763Z,20.30
2023-05-13T13:55:23.012Z,20.30
2023-05-13T13:57:51.905Z,20.50
2023-05-13T14:00:20.753Z,20.60
2023-05-13T14:02:50.702Z,20.60
2023-05-13T14:05:19.516Z,20.60
2023-05-13T14:07:49.419Z,20.50
2023-05-13T14:10:17.574Z,20.40
2023-05-13T14:12:45.671Z,20.40
2023-05-13T14:15:14.065Z,20.30
2023-05-13T14:17:42.315Z,20.10
2023-05-13T14:20:12.418Z,20.20
2023-05-13T14:22:40.568Z,20.30
2023-05-13T14:25:09.640Z,20.30
2023-05-13T14:27:37.929Z,20.20
2023-05-13T14:30:07.985Z,20.20
2023-05-13T14:32:36.242Z,20.10
2023-05-13T14:35:04.568Z,20.00
2023-05-13T14:37:34.185Z,19.80
2023-05-13T14:40:02.405Z,19.50
2023-05-13T14:42:30.727Z,19.40
2023-05-13T14:44:58.843Z,19.30
2023-05-13T14:47:27.370Z,19.30
2023-05-13T14:49:55.537Z,19.40
2023-05-13T14:52:23.670Z,19.40
2023-05-13T14:54:53.129Z,19.50
2023-05-13T14:57:21.479Z,19.50
2023-05-13T14:59:49.597Z,19.50
2023-05-13T15:02:18.157Z,19.50
2023-05-13T15:04:46.473Z,19.60
2023-05-13T15:07:14.764Z,19.50
2023-05-13T15:09:42.985Z,19.50
2023-05-13T15:12:12.643Z,19.50
2023-05-13T15:14:40.815Z,19.50
2023-05-13T15:17:11.679Z,19.60
2023-05-13T15:19:40.068Z,19.80
2023-05-13T15:22:08.226Z,20.20
2023-05-13T15:24:37.355Z,20.50
2023-05-13T15:27:06.365Z,20.80
2023-05-13T15:29:36.070Z,21.10
2023-05-13T15:32:06.203Z,21.40
2023-05-13T15:34:34.416Z,21.50
2023-05-13T15:37:02.558Z,21.40
2023-05-13T15:39:30.764Z,21.20
2023-05-13T15:41:59.356Z,21.00
2023-05-13T15:44:27.907Z,20.90
2023-05-13T15:46:57.386Z,20.70
2023-05-13T15:49:25.575Z,20.50
2023-05-13T15:51:55.974Z,20.20
2023-05-13T15:54:24.273Z,20.00
2023-05-13T15:56:52.866Z,19.70
2023-05-13T15:59:21.130Z,19.50
2023-05-13T16:01:49.321Z,19.30
2023-05-13T16:04:18.791Z,19.10
2023-05-13T16:06:46.992Z,18.90
2023-05-13T16:09:15.286Z,18.80
2023-05-13T16:11:43.710Z,18.70
2023-05-13T16:14:11.833Z,18.60
2023-05-13T16:16:40.065Z,18.50
2023-05-13T16:19:08.434Z,18.40
2023-05-13T16:21:42.315Z,18.30
2023-05-13T16:24:11.202Z,18.20
2023-05-13T16:26:39.415Z,18.20
2023-05-13T16:29:07.525Z,18.20
2023-05-13T16:31:36.055Z,18.20
2023-05-13T16:34:04.470Z,18.10
2023-05-13T16:36:32.635Z,18.10
2023-05-13T16:39:02.137Z,18.00
2023-05-13T16:41:30.227Z,18.00
2023-05-13T16:43:58.300Z,18.00
2023-05-13T16:46:26.470Z,18.00
2023-05-13T16:48:56.192Z,18.00
2023-05-13T16:51:25.256Z,18.00
2023-05-13T16:53:53.621Z,18.00
2023-05-13T16:56:23.182Z,18.00
2023-05-13T16:58:51.756Z,17.90
2023-05-13T17:01:19.895Z,18.00
2023-05-13T17:03:48.153Z,18.00
2023-05-13T17:06:16.408Z,18.00
2023-05-13T17:08:44.567Z,18.00
2023-05-13T17:11:16.534Z,18.00
2023-05-13T17:13:46.338Z,17.90
2023-05-13T17:16:14.521Z,17.90
2023-05-13T17:18:42.954Z,17.80
2023-05-13T17:21:11.467Z,17.70
2023-05-13T17:23:39.699Z,17.70
2023-05-13T17:26:07.951Z,17.70
2023-05-13T17:28:38.068Z,17.60
2023-05-13T17:31:08.749Z,17.50
2023-05-13T17:33:37.005Z,17.40
2023-05-13T17:36:06.371Z,17.40
2023-05-13T17:38:34.600Z,17.30
2023-05-13T17:41:02.762Z,17.10
2023-05-13T17:43:31.032Z,16.90
2023-05-13T17:45:59.456Z,16.70
2023-05-13T17:48:29.502Z,16.60
2023-05-13T17:50:58.755Z,16.40
2023-05-13T17:53:26.991Z,16.30
2023-05-13T17:55:55.182Z,16.10
2023-05-13T17:58:23.382Z,16.00
2023-05-13T18:00:51.980Z,15.90
2023-05-13T18:03:21.589Z,15.80
2023-05-13T18:05:51.339Z,15.70
2023-05-13T18:08:19.522Z,15.60
2023-05-13T18:10:48.830Z,15.50
2023-05-13T18:13:17.226Z,15.50
2023-05-13T18:15:45.580Z,15.40
2023-05-13T18:18:13.815Z,15.30
2023-05-13T18:20:42.177Z,15.20
2023-05-13T18:23:11.780Z,15.10
2023-05-13T18:25:52.109Z,15.00
2023-05-13T18:28:23.635Z,14.90
2023-05-13T18:30:51.784Z,14.80
2023-05-13T18:33:21.647Z,14.70
2023-05-13T18:35:50.157Z,14.60
2023-05-13T18:38:19.815Z,14.50
2023-05-13T18:40:47.940Z,14.40
2023-05-13T18:43:16.106Z,14.30
2023-05-13T18:45:44.444Z,14.20
2023-05-13T18:48:12.758Z,14.10
2023-05-13T18:50:41.012Z,14.00
2023-05-13T18:53:09.189Z,13.90
2023-05-13T18:55:38.908Z,13.80
2023-05-13T18:58:07.176Z,13.60
2023-05-13T19:00:35.465Z,13.50
2023-05-13T19:03:03.759Z,13.40
2023-05-13T19:05:32.388Z,13.30
2023-05-13T19:08:00.984Z,13.20
2023-05-13T19:10:29.212Z,13.10
2023-05-13T19:12:58.703Z,13.00
2023-05-13T19:15:27.161Z,13.00
2023-05-13T19:17:55.658Z,12.80
2023-05-13T19:20:25.862Z,12.70
2023-05-13T19:22:54.120Z,12.70
2023-05-13T19:25:22.326Z,12.60
2023-05-13T19:27:51.043Z,12.50
2023-05-13T19:30:21.051Z,12.40
2023-05-13T19:32:49.650Z,12.30
2023-05-13T19:35:18.071Z,12.20
2023-05-13T19:37:46.348Z,12.10
2023-05-13T19:40:14.696Z,12.10
2023-05-13T19:42:43.106Z,12.00
2023-05-13T19:45:12.230Z,12.00
2023-05-13T19:47:42.209Z,11.90
2023-05-13T19:50:10.959Z,11.80
2023-05-13T19:52:40.579Z,11.70
2023-05-13T19:55:10.729Z,11.60
2023-05-13T19:57:42.231Z,11.60
2023-05-13T20:00:13.102Z,11.50
2023-05-13T20:02:42.887Z,11.40
2023-05-13T20:05:11.377Z,11.30
2023-05-13T20:07:39.687Z,11.30
2023-05-13T20:10:10.323Z,11.20
2023-05-13T20:12:38.576Z,11.10
2023-05-13T20:15:08.154Z,11.10
2023-05-13T20:17:36.508Z,11.00
2023-05-13T20:20:08.136Z,10.90
2023-05-13T20:22:36.375Z,10.90
2023-05-13T20:25:05.109Z,10.80
2023-05-13T20:27:33.317Z,10.80
2023-05-13T20:30:02.112Z,10.70
2023-05-13T20:32:30.985Z,10.70
2023-05-13T20:34:59.231Z,10.60
2023-05-13T20:37:29.439Z,10.60
2023-05-13T20:39:57.614Z,10.50
2023-05-13T20:42:25.807Z,10.50
2023-05-13T20:44:54.110Z,10.40
2023-05-13T20:47:22.358Z,10.40
2023-05-13T20:49:50.715Z,10.40
2023-05-13T20:52:18.958Z,10.30
2023-05-13T20:54:48.550Z,10.30
2023-05-13T20:57:16.699Z,10.20
2023-05-13T20:59:44.866Z,10.20
2023-05-13T21:02:13.154Z,10.20
2023-05-13T21:04:41.420Z,10.20
2023-05-13T21:07:09.646Z,10.20
2023-05-13T21:09:37.796Z,10.10
2023-05-13T21:12:08.107Z,10.20
2023-05-13T21:14:36.292Z,10.10
2023-05-13T21:17:04.462Z,10.10
2023-05-13T21:19:32.615Z,10.20
2023-05-13T21:22:01.622Z,10.20
2023-05-13T21:24:29.889Z,10.30
2023-05-13T21:26:58.130Z,10.40
2023-05-13T21:29:30.018Z,10.50
2023-05-13T21:31:58.184Z,10.60
2023-05-13T21:34:26.475Z,10.60
2023-05-13T21:36:56.433Z,10.60
2023-05-13T21:39:24.564Z,10.70
2023-05-13T21:41:52.819Z,10.70
2023-05-13T21:44:21.595Z,10.70
2023-05-13T21:46:51.156Z,10.70
2023-05-13T21:49:19.319Z,10.70
2023-05-13T21:51:47.437Z,10.80
2023-05-13T21:54:15.739Z,10.80
2023-05-13T21:56:43.908Z,10.80
2023-05-13T21:59:12.146Z,10.80
2023-05-13T22:01:40.485Z,10.80
2023-05-13T22:04:10.166Z,10.80
2023-05-13T22:06:38.343Z,10.80
2023-05-13T22:09:06.875Z,10.80
2023-05-13T22:11:35.041Z,10.80
2023-05-13T22:14:03.188Z,10.80
2023-05-13T22:16:31.476Z,10.80
2023-05-13T22:19:00.159Z,10.80
2023-05-13T22:21:32.542Z,10.80
2023-05-13T22:24:00.772Z,10.80
2023-05-13T22:26:28.904Z,10.80
2023-05-13T22:28:57.188Z,10.80
2023-05-13T22:31:25.670Z,10.90
2023-05-13T22:33:54.126Z,10.90
2023-05-13T22:36:22.367Z,10.90
2023-05-13T22:38:51.852Z,10.90
2023-05-13T22:41:23.537Z,10.90
2023-05-13T22:43:51.700Z,10.80
2023-05-13T22:46:19.894Z,10.80
2023-05-13T22:48:48.041Z,10.80
2023-05-13T22:51:16.112Z,10.80
2023-05-13T22:53:44.393Z,10.70
2023-05-13T22:56:13.929Z,10.70
2023-05-13T22:58:42.264Z,10.60
2023-05-13T23:01:10.507Z,10.50
2023-05-13T23:03:38.921Z,10.40
2023-05-13T23:06:07.566Z,10.30
2023-05-13T23:08:35.772Z,10.20
2023-05-13T23:11:04.242Z,10.20
2023-05-13T23:13:33.714Z,10.10
2023-05-13T23:16:01.949Z,10.00
2023-05-13T23:18:30.415Z,9.90
2023-05-13T23:20:58.798Z,9.80
2023-05-13T23:23:26.966Z,9.70
2023-05-13T23:25:55.137Z,9.70
2023-05-13T23:28:23.246Z,9.60
2023-05-13T23:30:55.390Z,9.60
2023-05-13T23:33:23.624Z,9.50
2023-05-13T23:35:54.317Z,9.40
2023-05-13T23:38:23.345Z,9.40
2023-05-13T23:40:51.683Z,9.40
2023-05-13T23:43:19.825Z,9.30
2023-05-13T23:45:47.999Z,9.20
2023-05-13T23:48:17.572Z,9.20
2023-05-13T23:50:45.644Z,9.10
2023-05-13T23:53:13.921Z,9.10
2023-05-13T23:55:42.218Z,9.00
2023-05-13T23:58:10.472Z,8.90
